createdAt,value
2023-01-21T00:00:59.361Z,17.50
2023-01-21T00:03:56.459Z,7.90
2023-01-21T00:06:54.310Z,16.80
2023-01-21T00:09:47.506Z,11.80
2023-01-21T00:12:40.453Z,13.70
2023-01-21T00:15:34.215Z,9.10
2023-01-21T00:18:30.026Z,10.70
2023-01-21T00:21:24.706Z,10.30
2023-01-21T00:24:16.437Z,8.80
2023-01-21T00:27:11.411Z,8.60
2023-01-21T00:30:04.384Z,7.80
2023-01-21T00:32:57.269Z,18.70
2023-01-21T00:36:01.802Z,11.70
2023-01-21T00:39:07.918Z,14.20
2023-01-21T00:42:05.600Z,12.40
2023-01-21T00:44:58.927Z,6.20
2023-01-21T00:47:53.568Z,10.50
2023-01-21T00:50:46.300Z,9.90
2023-01-21T00:53:42.106Z,9.70
2023-01-21T00:57:15.061Z,12.20
2023-01-21T01:00:13.232Z,6.50
2023-01-21T01:03:05.867Z,12.80
2023-01-21T01:06:05.315Z,9.50
2023-01-21T01:09:00.483Z,6.30
2023-01-21T01:11:54.871Z,8.20
2023-01-21T01:14:48.123Z,8.90
2023-01-21T01:17:41.373Z,11.80
2023-01-21T01:20:34.102Z,7.00
2023-01-21T01:23:28.623Z,8.20
2023-01-21T01:26:29.168Z,6.20
2023-01-21T01:29:25.872Z,5.60
2023-01-21T01:32:18.406Z,10.60
2023-01-21T01:35:12.454Z,3.90
2023-01-21T01:38:11.363Z,6.50
2023-01-21T01:41:07.529Z,14.10
2023-01-21T01:44:16.138Z,6.70
2023-01-21T01:47:13.801Z,6.20
2023-01-21T01:50:14.742Z,6.80
2023-01-21T01:53:09.321Z,3.60
2023-01-21T01:56:05.091Z,6.60
2023-01-21T01:58:58.471Z,6.80
2023-01-21T02:01:53.815Z,6.70
2023-01-21T02:04:52.826Z,7.20
2023-01-21T02:07:45.837Z,5.00
2023-01-21T02:10:39.020Z,4.90
2023-01-21T02:13:33.918Z,5.20
2023-01-21T02:16:54.355Z,5.20
2023-01-21T02:20:24.745Z,6.60
2023-01-21T02:23:22.378Z,4.70
2023-01-21T02:26:59.267Z,3.50
2023-01-21T02:30:25.770Z,4.30
2023-01-21T02:33:38.956Z,4.20
2023-01-21T02:36:43.679Z,4.20
2023-01-21T02:39:50.064Z,4.20
2023-01-21T02:42:48.593Z,6.50
2023-01-21T02:45:48.984Z,5.30
2023-01-21T02:49:04.337Z,4.60
2023-01-21T02:51:59.472Z,3.30
2023-01-21T02:54:59.478Z,3.10
2023-01-21T02:57:55.936Z,3.90
2023-01-21T03:00:59.511Z,3.90
2023-01-21T03:04:19.946Z,4.10
2023-01-21T03:07:22.998Z,2.70
2023-01-21T03:10:28.822Z,3.90
2023-01-21T03:13:43.113Z,3.50
2023-01-21T03:16:59.058Z,3.70
2023-01-21T03:19:57.770Z,3.40
2023-01-21T03:22:56.287Z,4.30
2023-01-21T03:25:51.621Z,1.80
2023-01-21T03:28:47.503Z,4.40
2023-01-21T03:31:44.818Z,3.20
2023-01-21T03:34:42.839Z,3.50
2023-01-21T03:37:40.900Z,3.00
2023-01-21T03:40:39.591Z,6.70
2023-01-21T03:43:35.233Z,4.10
2023-01-21T03:46:36.533Z,2.60
2023-01-21T03:49:35.656Z,4.00
2023-01-21T03:52:31.834Z,3.10
2023-01-21T03:55:25.096Z,5.60
2023-01-21T03:58:16.783Z,3.10
2023-01-21T04:01:10.769Z,2.70
2023-01-21T04:07:06.171Z,4.50
2023-01-21T04:10:00.821Z,2.00
2023-01-21T04:12:53.423Z,2.60
2023-01-21T04:15:47.310Z,1.80
2023-01-21T04:18:40.407Z,2.20
2023-01-21T04:21:16.968Z,2.50
2023-01-21T04:23:52.585Z,1.60
2023-01-21T04:26:45.409Z,2.20
2023-01-21T04:29:38.237Z,1.50
2023-01-21T04:32:31.872Z,2.40
2023-01-21T04:35:25.469Z,1.30
2023-01-21T04:38:19.310Z,1.30
2023-01-21T04:41:13.641Z,2.60
2023-01-21T04:44:09.837Z,0.90
2023-01-21T04:47:50.104Z,1.40
2023-01-21T04:50:43.991Z,2.90
2023-01-21T04:53:37.955Z,1.10
2023-01-21T04:56:41.773Z,1.90
2023-01-21T04:59:40.374Z,1.60
2023-01-21T05:02:37.312Z,1.30
2023-01-21T05:05:38.137Z,0.70
2023-01-21T05:08:35.126Z,1.20
2023-01-21T05:11:30.428Z,1.30
2023-01-21T05:14:24.675Z,0.90
2023-01-21T05:17:17.889Z,1.00
2023-01-21T05:20:13.190Z,0.80
2023-01-21T05:22:56.850Z,1.00
2023-01-21T05:25:52.034Z,1.20
2023-01-21T05:28:44.601Z,0.90
2023-01-21T05:31:47.484Z,1.20
2023-01-21T05:34:41.052Z,1.40
2023-01-21T05:37:40.005Z,1.20
2023-01-21T05:40:38.799Z,1.10
2023-01-21T05:43:38.205Z,0.60
2023-01-21T05:46:48.480Z,1.60
2023-01-21T05:49:41.637Z,2.10
2023-01-21T05:52:39.470Z,1.90
2023-01-21T05:55:40.231Z,0.90
2023-01-21T05:58:38.671Z,0.70
2023-01-21T06:01:56.984Z,0.40
2023-01-21T06:04:50.439Z,0.40
2023-01-21T06:07:29.034Z,0.40
2023-01-21T06:10:22.523Z,1.80
2023-01-21T06:13:15.270Z,1.10
2023-01-21T06:16:13.687Z,0.90
2023-01-21T06:18:55.981Z,1.50
2023-01-21T06:21:49.993Z,3.00
2023-01-21T06:24:43.209Z,1.10
2023-01-21T06:27:41.508Z,0.90
2023-01-21T06:30:43.344Z,0.60
2023-01-21T06:33:39.036Z,1.00
2023-01-21T06:36:43.764Z,1.10
2023-01-21T06:39:43.182Z,0.60
2023-01-21T06:42:39.886Z,1.10
2023-01-21T06:45:40.666Z,1.40
2023-01-21T06:48:54.238Z,1.70
2023-01-21T06:51:47.092Z,1.70
2023-01-21T06:54:45.666Z,1.10
2023-01-21T06:57:24.025Z,1.70
2023-01-21T07:00:19.138Z,2.20
2023-01-21T07:03:18.470Z,1.80
2023-01-21T07:06:12.781Z,2.90
2023-01-21T07:09:29.487Z,1.00
2023-01-21T07:12:24.374Z,0.90
2023-01-21T07:15:17.397Z,2.70
2023-01-21T07:18:14.278Z,2.40
2023-01-21T07:21:12.010Z,1.30
2023-01-21T07:24:14.356Z,1.00
2023-01-21T07:27:11.494Z,0.70
2023-01-21T07:30:10.623Z,0.70
2023-01-21T07:33:16.145Z,1.60
2023-01-21T07:36:12.687Z,0.60
2023-01-21T07:39:10.405Z,0.30
2023-01-21T07:42:10.371Z,0.70
2023-01-21T07:45:15.524Z,0.30
2023-01-21T07:48:20.081Z,1.80
2023-01-21T07:51:14.879Z,0.20
2023-01-21T07:54:00.274Z,0.40
2023-01-21T07:56:53.354Z,0.20
2023-01-21T07:59:46.129Z,0.40
2023-01-21T08:02:44.557Z,0.20
2023-01-21T08:06:16.796Z,0.60
2023-01-21T08:09:11.646Z,0.40
2023-01-21T08:12:10.655Z,0.20
2023-01-21T08:15:06.877Z,1.80
2023-01-21T08:17:59.859Z,0.40
2023-01-21T08:20:57.061Z,0.80
2023-01-21T08:23:50.347Z,0.70
2023-01-21T08:26:46.056Z,0.30
2023-01-21T08:29:44.648Z,1.50
2023-01-21T08:32:44.165Z,0.70
2023-01-21T08:35:47.861Z,0.60
2023-01-21T08:38:47.142Z,0.30
2023-01-21T08:41:46.593Z,1.40
2023-01-21T08:44:39.508Z,0.30
2023-01-21T08:47:34.447Z,0.30
2023-01-21T08:50:28.016Z,1.10
2023-01-21T08:53:21.811Z,0.50
2023-01-21T08:56:14.538Z,1.80
2023-01-21T08:59:11.863Z,0.60
2023-01-21T09:01:55.413Z,1.40
2023-01-21T09:04:50.799Z,0.60
2023-01-21T09:07:43.427Z,1.30
2023-01-21T09:11:00.034Z,1.30
2023-01-21T09:13:53.099Z,2.80
2023-01-21T09:16:50.886Z,0.40
2023-01-21T09:19:43.372Z,1.30
2023-01-21T09:22:37.023Z,2.20
2023-01-21T09:25:29.606Z,1.60
2023-01-21T09:28:25.338Z,1.40
2023-01-21T09:31:21.981Z,2.80
2023-01-21T09:37:09.555Z,1.70
2023-01-21T09:40:13.284Z,2.10
2023-01-21T09:43:33.564Z,1.00
2023-01-21T09:46:35.732Z,1.70
2023-01-21T09:49:37.004Z,2.90
2023-01-21T09:52:38.021Z,2.50
2023-01-21T09:55:36.733Z,5.10
2023-01-21T09:58:36.988Z,3.00
2023-01-21T10:01:35.356Z,2.30
2023-01-21T10:04:54.404Z,1.40
2023-01-21T10:07:54.456Z,1.90
2023-01-21T10:10:52.639Z,2.30
2023-01-21T10:14:09.176Z,3.90
2023-01-21T10:17:10.760Z,2.90
2023-01-21T10:20:14.337Z,3.30
2023-01-21T10:23:20.927Z,4.10
2023-01-21T10:26:15.862Z,4.60
2023-01-21T10:29:31.694Z,2.70
2023-01-21T10:32:30.702Z,3.50
2023-01-21T10:35:36.001Z,2.40
2023-01-21T10:38:39.851Z,4.00
2023-01-21T10:41:50.689Z,1.30
2023-01-21T10:44:52.164Z,5.30
2023-01-21T10:47:50.363Z,3.60
2023-01-21T10:50:54.713Z,3.60
2023-01-21T10:53:56.653Z,4.10
2023-01-21T10:56:53.329Z,0.90
2023-01-21T10:59:46.290Z,3.00
2023-01-21T11:02:38.843Z,3.40
2023-01-21T11:05:33.893Z,5.10
2023-01-21T11:08:27.725Z,3.00
2023-01-21T11:11:28.125Z,6.30
2023-01-21T11:14:21.332Z,3.20
2023-01-21T11:17:14.775Z,3.90
2023-01-21T11:20:20.293Z,2.30
2023-01-21T11:23:30.789Z,3.70
2023-01-21T11:26:28.328Z,2.60
2023-01-21T11:29:22.925Z,6.60
2023-01-21T11:32:24.031Z,4.80
2023-01-21T11:35:24.526Z,5.70
2023-01-21T11:38:33.236Z,3.40
2023-01-21T11:41:27.041Z,4.60
2023-01-21T11:44:22.191Z,4.40
2023-01-21T11:47:40.452Z,9.20
2023-01-21T11:50:37.806Z,5.00
2023-01-21T11:53:30.676Z,6.30
2023-01-21T11:56:23.345Z,10.50
2023-01-21T11:59:27.362Z,8.10
2023-01-21T12:02:24.948Z,8.30
2023-01-21T12:05:25.155Z,9.50
2023-01-21T12:08:24.597Z,6.00
2023-01-21T12:14:26.329Z,6.90
2023-01-21T12:17:30.900Z,7.80
2023-01-21T12:20:34.602Z,5.90
2023-01-21T12:23:40.615Z,8.30
2023-01-21T12:26:45.653Z,10.00
2023-01-21T12:29:45.994Z,10.10
2023-01-21T12:35:40.503Z,5.50
2023-01-21T12:38:41.071Z,9.40
2023-01-21T12:41:37.868Z,13.40
2023-01-21T12:44:37.357Z,11.20
2023-01-21T12:47:36.725Z,9.10
2023-01-21T12:50:41.436Z,8.00
2023-01-21T12:53:42.040Z,9.40
2023-01-21T12:56:42.130Z,11.00
2023-01-21T12:59:41.156Z,8.50
2023-01-21T13:02:44.808Z,12.60
2023-01-21T13:05:45.661Z,7.80
2023-01-21T13:08:49.150Z,9.60
2023-01-21T13:11:51.642Z,13.70
2023-01-21T13:14:48.572Z,9.50
2023-01-21T13:17:52.597Z,7.60
2023-01-21T13:21:03.809Z,12.60
2023-01-21T13:27:05.289Z,9.40
2023-01-21T13:30:16.468Z,11.90
2023-01-21T13:33:42.675Z,10.90
2023-01-21T13:36:47.324Z,12.00
2023-01-21T13:39:49.068Z,13.00
2023-01-21T13:42:50.875Z,4.40
2023-01-21T13:45:58.174Z,8.80
2023-01-21T13:49:06.337Z,12.20
2023-01-21T13:52:06.750Z,12.20
2023-01-21T13:55:22.331Z,15.20
2023-01-21T13:58:06.335Z,13.30
2023-01-21T14:01:07.045Z,10.90
2023-01-21T14:04:08.693Z,10.30
2023-01-21T14:07:16.167Z,16.40
2023-01-21T14:10:27.218Z,16.90
2023-01-21T14:14:08.782Z,21.60
2023-01-21T14:17:39.604Z,15.30
2023-01-21T14:20:57.478Z,6.30
2023-01-21T14:24:03.551Z,17.50
2023-01-21T14:27:15.287Z,5.20
2023-01-21T14:30:16.186Z,12.50
2023-01-21T14:33:20.050Z,19.30
2023-01-21T14:36:19.442Z,18.30
2023-01-21T14:39:11.355Z,16.70
2023-01-21T14:42:12.896Z,6.90
2023-01-21T14:45:09.528Z,16.10
2023-01-21T14:48:01.004Z,11.60
2023-01-21T14:51:17.393Z,16.10
2023-01-21T14:54:19.414Z,11.90
2023-01-21T14:57:30.673Z,20.80
2023-01-21T15:00:23.008Z,15.30
2023-01-21T15:03:21.067Z,22.40
2023-01-21T15:06:20.272Z,18.80
2023-01-21T15:09:25.578Z,20.80
2023-01-21T15:12:30.196Z,16.60
2023-01-21T15:15:35.273Z,19.10
2023-01-21T15:18:36.509Z,16.50
2023-01-21T15:21:44.171Z,11.20
2023-01-21T15:24:42.646Z,19.40
2023-01-21T15:27:40.187Z,13.80
2023-01-21T15:30:54.220Z,20.10
2023-01-21T15:33:58.560Z,15.70
2023-01-21T15:36:58.195Z,16.30
2023-01-21T15:39:59.508Z,19.90
2023-01-21T15:43:03.680Z,20.20
2023-01-21T15:46:06.058Z,21.30
2023-01-21T15:49:19.532Z,19.50
2023-01-21T15:52:45.557Z,23.50
2023-01-21T15:56:05.127Z,19.30
2023-01-21T15:59:10.202Z,17.40
2023-01-21T16:02:23.963Z,25.20
2023-01-21T16:05:35.819Z,25.80
2023-01-21T16:08:46.475Z,13.80
2023-01-21T16:12:06.519Z,18.60
2023-01-21T16:15:08.399Z,19.10
2023-01-21T16:18:12.445Z,21.80
2023-01-21T16:21:06.892Z,18.00
2023-01-21T16:24:24.879Z,15.20
2023-01-21T16:27:35.728Z,26.60
2023-01-21T16:30:33.081Z,24.60
2023-01-21T16:33:29.691Z,25.90
2023-01-21T16:36:47.257Z,21.20
2023-01-21T16:39:45.988Z,23.70
2023-01-21T16:42:41.793Z,29.20
2023-01-21T16:45:35.929Z,31.30
2023-01-21T16:48:46.163Z,28.50
2023-01-21T16:51:41.967Z,15.70
2023-01-21T16:54:49.309Z,28.40
2023-01-21T16:58:20.167Z,24.60
2023-01-21T17:01:17.191Z,33.50
2023-01-21T17:04:24.986Z,29.00
2023-01-21T17:07:23.415Z,24.60
2023-01-21T17:10:25.923Z,20.40
2023-01-21T17:13:19.391Z,24.00
2023-01-21T17:16:29.574Z,23.80
2023-01-21T17:19:29.204Z,16.90
2023-01-21T17:25:26.636Z,32.10
2023-01-21T17:28:46.826Z,30.00
2023-01-21T17:31:46.793Z,57.90
2023-01-21T17:34:40.896Z,19.80
2023-01-21T17:37:55.596Z,29.70
2023-01-21T17:41:11.964Z,27.90
2023-01-21T17:44:21.138Z,22.10
2023-01-21T17:48:14.984Z,28.70
2023-01-21T17:50:48.308Z,28.00
2023-01-21T17:53:46.382Z,21.10
2023-01-21T17:56:50.155Z,31.40
2023-01-21T17:59:46.450Z,33.70
2023-01-21T18:02:39.446Z,26.00
2023-01-21T18:05:38.248Z,21.90
2023-01-21T18:08:31.399Z,26.30
2023-01-21T18:11:24.419Z,32.20
2023-01-21T18:14:19.175Z,31.80
2023-01-21T18:17:27.425Z,30.90
2023-01-21T18:20:25.639Z,33.90
2023-01-21T18:23:18.571Z,23.00
2023-01-21T18:26:26.809Z,30.10
2023-01-21T18:29:23.577Z,33.30
2023-01-21T18:32:23.581Z,28.80
2023-01-21T18:35:21.516Z,42.10
2023-01-21T18:38:13.743Z,31.60
2023-01-21T18:41:09.022Z,32.80
2023-01-21T18:44:08.136Z,32.30
2023-01-21T18:47:00.800Z,32.20
2023-01-21T18:49:53.564Z,26.70
2023-01-21T18:52:46.879Z,26.70
2023-01-21T18:56:07.291Z,28.90
2023-01-21T18:59:11.797Z,31.60
2023-01-21T19:02:15.622Z,29.00
2023-01-21T19:05:25.165Z,18.70
2023-01-21T19:08:27.915Z,19.30
2023-01-21T19:11:35.219Z,29.00
2023-01-21T19:14:32.400Z,27.00
2023-01-21T19:19:11.381Z,15.10
2023-01-21T19:21:11.699Z,32.80
2023-01-21T19:24:11.890Z,31.90
2023-01-21T19:28:17.525Z,31.50
2023-01-21T19:30:49.950Z,22.10
2023-01-21T19:33:50.523Z,28.40
2023-01-21T19:37:03.776Z,24.60
2023-01-21T19:39:54.391Z,27.00
2023-01-21T19:42:54.842Z,26.40
2023-01-21T19:46:43.592Z,25.50
2023-01-21T19:49:05.220Z,19.70
2023-01-21T19:51:53.135Z,31.00
2023-01-21T19:54:48.587Z,28.90
2023-01-21T19:57:51.676Z,27.40
2023-01-21T20:00:45.870Z,31.40
2023-01-21T20:04:04.128Z,36.80
2023-01-21T20:07:04.103Z,27.70
2023-01-21T20:10:17.534Z,40.00
2023-01-21T20:13:10.229Z,30.50
2023-01-21T20:16:40.175Z,33.30
2023-01-21T20:19:38.720Z,29.60
2023-01-21T20:22:38.225Z,34.20
2023-01-21T20:25:37.626Z,28.20
2023-01-21T20:28:44.934Z,24.50
2023-01-21T20:31:54.770Z,19.20
2023-01-21T20:34:53.950Z,26.20
2023-01-21T20:38:55.823Z,24.40
2023-01-21T20:41:24.532Z,29.80
2023-01-21T20:47:38.453Z,24.50
2023-01-21T20:50:50.690Z,32.50
2023-01-21T20:54:30.871Z,34.40
2023-01-21T20:56:59.310Z,32.60
2023-01-21T21:00:02.279Z,30.20
2023-01-21T21:03:01.057Z,29.10
2023-01-21T21:05:54.583Z,31.20
2023-01-21T21:08:51.608Z,29.80
2023-01-21T21:11:51.898Z,23.70
2023-01-21T21:14:47.080Z,27.60
2023-01-21T21:17:51.301Z,27.30
2023-01-21T21:20:47.432Z,17.70
2023-01-21T21:23:40.339Z,29.70
2023-01-21T21:26:38.337Z,36.60
2023-01-21T21:29:32.744Z,34.60
2023-01-21T21:32:29.048Z,41.70
2023-01-21T21:35:32.061Z,45.20
2023-01-21T21:38:26.344Z,34.80
2023-01-21T21:41:38.236Z,40.20
2023-01-21T21:44:31.843Z,24.80
2023-01-21T21:47:44.930Z,32.00
2023-01-21T21:50:31.045Z,37.50
2023-01-21T21:53:24.345Z,36.20
2023-01-21T21:56:24.199Z,31.90
2023-01-21T22:02:15.273Z,25.10
2023-01-21T22:05:13.880Z,30.80
2023-01-21T22:08:17.051Z,35.00
2023-01-21T22:11:20.539Z,33.40
2023-01-21T22:14:16.731Z,31.20
2023-01-21T22:17:14.094Z,35.10
2023-01-21T22:20:15.368Z,35.80
2023-01-21T22:23:32.807Z,30.10
2023-01-21T22:26:28.668Z,33.00
2023-01-21T22:29:21.785Z,30.80
2023-01-21T22:32:18.960Z,38.60
2023-01-21T22:35:15.438Z,33.10
2023-01-21T22:38:15.595Z,33.60
2023-01-21T22:41:04.459Z,27.80
2023-01-21T22:43:57.935Z,27.00
2023-01-21T22:46:54.058Z,35.40
2023-01-21T22:49:52.745Z,21.40
2023-01-21T22:52:51.427Z,42.80
2023-01-21T22:55:53.657Z,31.40
2023-01-21T22:58:52.527Z,28.90
2023-01-21T23:01:51.648Z,27.60
2023-01-21T23:04:47.448Z,25.10
2023-01-21T23:07:34.339Z,24.60
2023-01-21T23:10:20.255Z,26.90
2023-01-21T23:13:18.651Z,23.40
2023-01-21T23:16:16.318Z,25.40
2023-01-21T23:19:09.466Z,28.00
2023-01-21T23:22:03.139Z,28.40
2023-01-21T23:24:55.668Z,25.90
2023-01-21T23:27:52.090Z,26.10
2023-01-21T23:30:39.950Z,25.30
2023-01-21T23:33:33.951Z,28.50
2023-01-21T23:36:27.184Z,32.30
2023-01-21T23:39:22.624Z,29.30
2023-01-21T23:42:19.747Z,33.90
2023-01-21T23:45:13.798Z,17.70
2023-01-21T23:48:08.875Z,22.60
2023-01-21T23:51:07.772Z,25.70
2023-01-21T23:54:03.554Z,28.70
2023-01-21T23:56:58.502Z,33.90
2023-01-21T23:59:42.517Z,29.70
